createdAt,value
2019-05-14T00:00:10.974Z,38
2019-05-14T00:05:12.107Z,38
2019-05-14T00:10:11.824Z,38
2019-05-14T00:15:11.160Z,38
2019-05-14T00:20:13.090Z,38
2019-05-14T00:25:11.650Z,39
2019-05-14T00:30:11.445Z,39
2019-05-14T00:35:11.248Z,39
2019-05-14T00:40:11.731Z,40
2019-05-14T00:45:11.497Z,40
2019-05-14T00:50:11.346Z,41
2019-05-14T00:55:11.693Z,42
2019-05-14T01:00:11.631Z,43
2019-05-14T01:05:12.353Z,44
2019-05-14T01:10:11.559Z,45
2019-05-14T01:15:13.998Z,45
2019-05-14T01:20:12.291Z,46
2019-05-14T01:25:11.951Z,47
2019-05-14T01:30:12.418Z,47
2019-05-14T01:35:11.973Z,47
2019-05-14T01:40:11.367Z,48
2019-05-14T01:45:23.745Z,48
2019-05-14T01:50:11.446Z,49
2019-05-14T01:55:11.352Z,50
2019-05-14T02:00:11.423Z,50
2019-05-14T02:05:12.411Z,50
2019-05-14T02:10:11.581Z,54
2019-05-14T02:15:11.993Z,55
2019-05-14T02:20:12.524Z,56
2019-05-14T02:25:11.596Z,57
2019-05-14T02:30:10.890Z,57
2019-05-14T02:35:10.902Z,57
2019-05-14T02:40:10.945Z,58
2019-05-14T02:45:10.901Z,58
2019-05-14T02:50:10.924Z,59
2019-05-14T02:55:10.929Z,60
2019-05-14T03:00:10.871Z,60
2019-05-14T03:05:10.907Z,61
2019-05-14T03:10:10.882Z,61
2019-05-14T03:15:10.917Z,61
2019-05-14T03:20:10.900Z,61
2019-05-14T03:25:10.869Z,61
2019-05-14T03:30:12.874Z,62
2019-05-14T03:35:13.094Z,62
2019-05-14T03:40:10.894Z,57
2019-05-14T03:45:10.856Z,54
2019-05-14T03:50:10.907Z,52
2019-05-14T03:55:10.846Z,51
2019-05-14T04:00:10.883Z,50
2019-05-14T04:05:10.885Z,48
2019-05-14T04:10:10.911Z,46
2019-05-14T04:15:10.801Z,44
2019-05-14T04:20:10.878Z,44
2019-05-14T04:25:11.373Z,42
2019-05-14T04:30:10.840Z,40
2019-05-14T04:35:10.880Z,38
2019-05-14T04:40:10.842Z,36
2019-05-14T04:45:11.465Z,38
2019-05-14T04:50:11.046Z,40
2019-05-14T04:55:10.887Z,42
2019-05-14T05:00:12.058Z,43
2019-05-14T05:05:10.808Z,44
2019-05-14T05:10:10.806Z,42
2019-05-14T05:15:10.777Z,34
2019-05-14T05:20:10.842Z,32
2019-05-14T05:25:10.855Z,29
2019-05-14T05:30:10.838Z,28
2019-05-14T05:35:10.770Z,27
2019-05-14T05:40:10.837Z,26
2019-05-14T05:45:10.789Z,24
2019-05-14T05:50:10.833Z,23
2019-05-14T05:55:10.826Z,23
2019-05-14T06:00:10.781Z,23
2019-05-14T06:05:10.820Z,24
2019-05-14T06:10:10.800Z,24
2019-05-14T06:15:13.865Z,23
2019-05-14T06:20:10.801Z,22
2019-05-14T06:25:11.586Z,23
2019-05-14T06:30:10.769Z,23
2019-05-14T06:35:10.794Z,23
2019-05-14T06:40:10.755Z,23
2019-05-14T06:45:10.794Z,23
2019-05-14T06:50:10.713Z,23
2019-05-14T06:55:10.739Z,23
2019-05-14T07:00:10.742Z,22
2019-05-14T07:05:10.774Z,22
2019-05-14T07:10:10.739Z,22
2019-05-14T07:15:10.733Z,22
2019-05-14T07:20:10.745Z,24
2019-05-14T07:25:10.775Z,23
2019-05-14T07:30:10.762Z,22
2019-05-14T07:35:10.730Z,21
2019-05-14T07:40:10.774Z,22
2019-05-14T07:45:10.688Z,25
2019-05-14T07:50:10.751Z,26
2019-05-14T07:55:10.763Z,31
2019-05-14T08:00:10.714Z,33
2019-05-14T08:05:10.763Z,34
2019-05-14T08:10:10.717Z,34
2019-05-14T08:15:17.546Z,31
2019-05-14T08:20:10.736Z,30
2019-05-14T08:25:10.667Z,36
2019-05-14T08:30:10.753Z,34
2019-05-14T08:35:10.727Z,34
2019-05-14T08:40:10.700Z,35
2019-05-14T08:45:13.753Z,33
2019-05-14T08:50:10.655Z,35
2019-05-14T08:55:13.843Z,37
2019-05-14T09:00:13.617Z,38
2019-05-14T09:05:11.058Z,40
2019-05-14T09:10:10.685Z,33
2019-05-14T09:15:10.705Z,32
2019-05-14T09:20:11.693Z,32
2019-05-14T09:25:10.666Z,29
2019-05-14T09:30:10.695Z,28
2019-05-14T09:35:10.676Z,30
2019-05-14T09:40:10.658Z,33
2019-05-14T09:45:11.562Z,41
2019-05-14T09:50:22.152Z,45
2019-05-14T09:55:10.654Z,34
2019-05-14T10:00:10.626Z,26
2019-05-14T10:05:10.656Z,22
2019-05-14T10:10:10.690Z,27
2019-05-14T10:15:10.646Z,25
2019-05-14T10:20:10.653Z,27
2019-05-14T10:25:10.691Z,31
2019-05-14T10:30:10.686Z,31
2019-05-14T10:35:10.658Z,30
2019-05-14T10:40:10.761Z,27
2019-05-14T10:45:12.791Z,29
2019-05-14T10:50:13.665Z,31
2019-05-14T10:55:10.656Z,29
2019-05-14T11:00:10.619Z,32
2019-05-14T11:05:10.654Z,36
2019-05-14T11:10:10.575Z,34
2019-05-14T11:15:10.619Z,32
2019-05-14T11:20:10.577Z,35
2019-05-14T11:25:10.630Z,36
2019-05-14T11:30:10.674Z,35
2019-05-14T11:35:12.680Z,37
2019-05-14T11:40:10.649Z,32
2019-05-14T11:45:10.645Z,30
2019-05-14T11:50:10.749Z,33
2019-05-14T11:55:10.644Z,36
2019-05-14T12:00:10.615Z,37
2019-05-14T12:05:10.628Z,37
2019-05-14T12:10:10.623Z,36
2019-05-14T12:15:10.579Z,37
2019-05-14T12:20:10.574Z,36
2019-05-14T12:25:10.602Z,34
2019-05-14T12:30:10.588Z,34
2019-05-14T12:35:10.595Z,34
2019-05-14T12:40:10.563Z,34
2019-05-14T12:45:10.614Z,32
2019-05-14T12:50:10.546Z,34
2019-05-14T12:55:10.589Z,35
2019-05-14T13:00:10.583Z,35
2019-05-14T13:05:10.546Z,35
2019-05-14T13:10:10.582Z,35
2019-05-14T13:15:10.549Z,35
2019-05-14T13:20:13.539Z,35
2019-05-14T13:25:11.233Z,37
2019-05-14T13:30:10.551Z,38
2019-05-14T13:35:13.655Z,35
2019-05-14T13:40:13.601Z,34
2019-05-14T13:45:10.638Z,34
2019-05-14T13:50:10.528Z,35
2019-05-14T13:55:10.565Z,37
2019-05-14T14:00:11.623Z,37
2019-05-14T14:05:10.519Z,38
2019-05-14T14:10:10.772Z,39
2019-05-14T14:15:10.572Z,41
2019-05-14T14:20:10.513Z,42
2019-05-14T14:25:10.520Z,42
2019-05-14T14:30:10.570Z,41
2019-05-14T14:35:10.664Z,39
2019-05-14T14:40:11.201Z,39
2019-05-14T14:45:10.542Z,37
2019-05-14T14:50:10.507Z,35
2019-05-14T14:55:10.530Z,35
2019-05-14T15:00:11.444Z,36
2019-05-14T15:05:13.979Z,38
2019-05-14T15:10:10.487Z,39
2019-05-14T15:15:10.451Z,40
2019-05-14T15:20:10.883Z,40
2019-05-14T15:25:10.491Z,40
2019-05-14T15:30:10.476Z,40
2019-05-14T15:35:11.277Z,39
2019-05-14T15:40:10.438Z,39
2019-05-14T15:45:10.513Z,39
2019-05-14T15:50:10.459Z,39
2019-05-14T15:55:10.523Z,38
2019-05-14T16:00:10.463Z,38
2019-05-14T16:05:10.551Z,38
2019-05-14T16:10:10.492Z,38
2019-05-14T16:15:10.487Z,38
2019-05-14T16:20:10.444Z,38
2019-05-14T16:25:10.456Z,38
2019-05-14T16:30:10.553Z,38
2019-05-14T16:35:10.443Z,38
2019-05-14T16:40:10.487Z,36
2019-05-14T16:45:10.473Z,37
2019-05-14T16:50:10.457Z,38
2019-05-14T16:55:22.416Z,38
2019-05-14T17:00:10.568Z,38
2019-05-14T17:05:10.480Z,38
2019-05-14T17:10:10.386Z,39
2019-05-14T17:15:10.458Z,40
2019-05-14T17:20:10.386Z,40
2019-05-14T17:25:10.418Z,40
2019-05-14T17:30:10.461Z,40
2019-05-14T17:35:10.738Z,40
2019-05-14T17:40:10.411Z,40
2019-05-14T17:45:10.419Z,40
2019-05-14T17:50:10.441Z,40
2019-05-14T17:55:11.949Z,40
2019-05-14T18:00:10.401Z,40
2019-05-14T18:05:10.393Z,40
2019-05-14T18:10:10.435Z,41
2019-05-14T18:15:10.384Z,42
2019-05-14T18:20:10.434Z,41
2019-05-14T18:25:10.381Z,42
2019-05-14T18:30:10.394Z,42
2019-05-14T18:35:10.420Z,42
2019-05-14T18:40:10.432Z,42
2019-05-14T18:45:10.418Z,43
2019-05-14T18:50:10.334Z,43
2019-05-14T18:55:10.386Z,43
2019-05-14T19:00:10.340Z,43
2019-05-14T19:05:10.381Z,44
2019-05-14T19:10:10.326Z,44
2019-05-14T19:15:10.389Z,45
2019-05-14T19:20:10.417Z,45
2019-05-14T19:25:10.321Z,46
2019-05-14T19:30:10.378Z,45
2019-05-14T19:35:10.381Z,46
2019-05-14T19:40:10.343Z,46
2019-05-14T19:45:10.372Z,47
2019-05-14T19:50:10.334Z,47
2019-05-14T19:55:10.326Z,47
2019-05-14T20:00:10.374Z,48
2019-05-14T20:05:10.337Z,49
2019-05-14T20:10:10.361Z,49
2019-05-14T20:15:10.289Z,50
2019-05-14T20:20:10.349Z,50
2019-05-14T20:25:10.332Z,51
2019-05-14T20:30:10.395Z,51
2019-05-14T20:35:10.322Z,51
2019-05-14T20:40:10.280Z,52
2019-05-14T20:45:10.351Z,52
2019-05-14T20:50:10.399Z,52
2019-05-14T20:55:10.305Z,53
2019-05-14T21:00:11.546Z,54
2019-05-14T21:05:13.331Z,53
2019-05-14T21:10:10.320Z,53
2019-05-14T21:15:10.352Z,54
2019-05-14T21:20:10.287Z,54
2019-05-14T21:25:12.445Z,54
2019-05-14T21:30:10.295Z,55
2019-05-14T21:35:10.240Z,55
2019-05-14T21:40:10.274Z,56
2019-05-14T21:45:10.313Z,56
2019-05-14T21:50:10.235Z,57
2019-05-14T21:55:10.300Z,58
2019-05-14T22:00:10.280Z,58
2019-05-14T22:05:10.476Z,59
2019-05-14T22:10:10.292Z,59
2019-05-14T22:15:10.253Z,61
2019-05-14T22:20:10.289Z,60
2019-05-14T22:25:10.247Z,61
2019-05-14T22:30:10.294Z,62
2019-05-14T22:35:10.389Z,62
2019-05-14T22:40:10.239Z,64
2019-05-14T22:45:10.310Z,65
2019-05-14T22:50:10.257Z,65
2019-05-14T22:55:10.284Z,67
2019-05-14T23:00:10.214Z,68
2019-05-14T23:05:10.220Z,69
2019-05-14T23:10:10.208Z,69
2019-05-14T23:15:10.273Z,70
2019-05-14T23:20:10.258Z,70
2019-05-14T23:25:10.217Z,71
2019-05-14T23:30:10.250Z,71
2019-05-14T23:35:10.216Z,72
2019-05-14T23:40:10.217Z,72
2019-05-14T23:45:10.235Z,73
2019-05-14T23:50:10.239Z,73
2019-05-14T23:55:10.235Z,74
